Nearby METAR Reports

 

CYKA - Kamloops Airport
Distance from station: SSW 65km
Updated: 2022-10-06 06:00
Few Clouds
Few Clouds
 Wind from calm
Wind: Calm
Temperature: 8°C
Dew Point: 6°C
Humidity: 87%
Barometer: 1026.8 hPa
Clouds: Few Clouds
Visibility: 64 km
Cloud details: Few Clouds 7620 m
2022/10/06 13:00 CYKA 061300Z 00000KT 40SM FEW250 08/06 A3032 RMK CI1 SLP273
CWSL - Salmon Arm Autob
Distance from station: SE 90km
Updated: 2022-10-06 06:00

 Wind from S
Wind: S 4 km/h
Temperature: 6°C
Dew Point: 5°C
Humidity: 93%
2022/10/06 13:00 CWSL 061300Z AUTO 17002KT 06/05 RMK AO1 SLP274 T00590051 53008
CYIN - Bleibler Ranch
Distance from station: W 103km
Updated: 2022-10-06 06:00
Clear
Clear
 Wind from W
Wind: W 6 km/h
Temperature: 0°C
Dew Point: -1°C
Humidity: 93%
Barometer: 1028.1 hPa
Clouds: Clear
Visibility: 14 km
2022/10/06 13:00 CYIN 061300Z AUTO 26003KT 9SM CLR M00/M01 A3036 RMK SLP294
 
CYCP - Blue River (man)
Distance from station: NNE 116km
Updated: 2022-10-06 06:00
Mist, Clear
Mist, Clear
 Wind from calm
Wind: Calm
Temperature: 3°C
Dew Point: 3°C
Humidity: 100%
Barometer: 1028.8 hPa
Summary: Mist
Clouds: Clear
Visibility: 2 km
2022/10/06 13:00 CYCP 061300Z 00000KT 1SM BR SKC 03/03 A3038 RMK FG6 SLP306
CYLW - Kelowna Airport
Distance from station: SSE 157km
Updated: 2022-10-06 06:00
Clear
Clear
 Wind from NE
Wind: NE 6 km/h
Temperature: 7°C
Dew Point: 5°C
Humidity: 87%
Barometer: 1026.1 hPa
Clouds: Clear
Visibility: 14 km
2022/10/06 13:00 CYLW 061300Z AUTO 05003KT 360V060 9SM CLR 07/05 A3030 RMK SLP264
CYWL - Williams Lake Airport
Distance from station: NW 164km
Updated: 2022-10-06 06:00
Clear
Clear
 Wind from calm
Wind: Calm
Temperature: 7°C
Dew Point: 5°C
Humidity: 87%
Barometer: 1028.1 hPa
Clouds: Clear
Visibility: 24 km
2022/10/06 13:00 CYWL 061300Z 00000KT 15SM SKC 07/05 A3036 RMK SLP292